Terminal Aerodrome Forecast
Issued by NWS Nashville, TN

Home | Current Version | Previous Version | Text Only | Print | Product List | Glossary On
Versions: 1 2 3 4 5 6 7 8 9 10 11 12 13 14 15 16 17 18 19 20 21 22 23
000
FTUS44 KOHX 270520
TAFBNA
TAF
KBNA 270520Z 2706/2806 20007KT P6SM BKN060
     FM271100 20007KT P6SM BKN029
      TEMPO 2714/2716 BKN009
     FM271900 23008G18KT 5SM TSRA OVC025CB
     FM272100 23008G18KT P6SM VCTS SCT025CB BKN050
     FM280100 22005KT 4SM TSRA BKN050CB
     FM280300 22003KT P6SM BKN100=

USA.gov is the U.S. government's official web portal to all federal, state and local government web resources and services.